Time;durP1;ratioP1;P1;durP2;ratioP2;P2;SDS_P1;SDS_P2;PMS_P1;PMS_P2;Temp;Humidity;BMP_temperature;BMP_pressure;BME280_temperature;BME280_humidity;BME280_pressure;Samples;Min_cycle;Max_cycle;Signal;HPM_P1;HPM_P2
2022/01/17 00:01:27;;;;;;;55.42;25.52;;;0.80;99.90;;;;;;4971398;28;20093;-72
2022/01/17 00:03:57;;;;;;;47.55;23.08;;;0.80;99.90;;;;;;4974004;28;20062;-72
2022/01/17 00:06:24;;;;;;;37.20;20.90;;;0.80;99.90;;;;;;4972113;28;21022;-72
2022/01/17 00:08:51;;;;;;;50.75;23.65;;;0.80;99.90;;;;;;4973234;28;20060;-72
2022/01/17 00:11:19;;;;;;;56.58;25.92;;;0.80;99.90;;;;;;4974453;28;20042;-72
2022/01/17 00:13:48;;;;;;;49.78;25.17;;;0.90;99.90;;;;;;4975022;28;20096;-72
2022/01/17 00:16:32;;;;;;;39.35;20.15;;;0.80;99.90;;;;;;4974994;28;20509;-72
2022/01/17 00:19:29;;;;;;;28.60;17.50;;;0.90;99.90;;;;;;4976467;28;20479;-71
2022/01/17 00:21:52;;;;;;;43.40;22.20;;;0.90;99.90;;;;;;4974785;28;20510;-72
2022/01/17 00:24:21;;;;;;;45.80;22.35;;;0.90;99.90;;;;;;4975051;28;20120;-72
2022/01/17 00:26:48;;;;;;;39.22;21.35;;;0.90;99.90;;;;;;4967930;28;20762;-72
2022/01/17 00:29:15;;;;;;;43.65;21.30;;;0.90;99.90;;;;;;4969900;28;20066;-72
2022/01/17 00:31:42;;;;;;;49.05;23.00;;;0.80;99.90;;;;;;4970464;28;20651;-72
2022/01/17 00:34:09;;;;;;;45.05;22.38;;;0.80;99.90;;;;;;4974662;28;20121;-72
2022/01/17 00:36:36;;;;;;;44.47;22.20;;;0.80;99.90;;;;;;4973136;28;20156;-72
2022/01/17 00:39:03;;;;;;;43.10;21.95;;;0.80;99.90;;;;;;4973826;28;20133;-72
2022/01/17 00:41:30;;;;;;;40.78;21.42;;;0.80;99.90;;;;;;4974519;28;20053;-72
2022/01/17 00:43:57;;;;;;;44.83;22.15;;;0.90;99.90;;;;;;4974118;28;20069;-72
2022/01/17 00:46:24;;;;;;;50.22;24.50;;;0.90;99.90;;;;;;4973019;28;20137;-72
2022/01/17 00:48:51;;;;;;;29.58;18.42;;;0.90;99.90;;;;;;4971396;28;20057;-72
2022/01/17 00:51:19;;;;;;;52.03;23.23;;;0.90;99.90;;;;;;4973371;28;20045;-72
2022/01/17 00:53:46;;;;;;;39.38;20.15;;;0.90;99.90;;;;;;4974171;28;20893;-72
2022/01/17 00:56:14;;;;;;;29.02;17.63;;;0.90;99.90;;;;;;4973628;28;20137;-72
2022/01/17 00:58:41;;;;;;;38.05;21.15;;;0.90;99.90;;;;;;4970273;28;20529;-72
2022/01/17 01:01:08;;;;;;;45.97;22.25;;;1.00;99.90;;;;;;4971404;28;20074;-72
2022/01/17 01:03:36;;;;;;;44.35;22.58;;;;;;;;;;4971627;28;20046;-72
2022/01/17 01:06:04;;;;;;;43.92;21.73;;;;;;;;;;4969882;28;20481;-72
2022/01/17 01:08:31;;;;;;;33.28;20.60;;;1.10;99.90;;;;;;4973511;28;20046;-72
2022/01/17 01:11:00;;;;;;;40.78;21.27;;;1.00;99.90;;;;;;4971555;28;20536;-72
2022/01/17 01:13:30;;;;;;;43.42;23.02;;;;;;;;;;4973236;28;20040;-72
2022/01/17 01:29:06;;;;;;;38.95;21.10;;;0.90;99.90;;;;;;4968429;28;20484;-73
2022/01/17 01:31:48;;;;;;;52.45;24.42;;;0.90;99.90;;;;;;4994499;28;20118;-73
2022/01/17 01:34:26;;;;;;;;;;;0.90;99.90;;;;;;4986056;28;20068;-73
2022/01/17 01:36:53;;;;;;;38.15;21.77;;;1.00;99.90;;;;;;4965911;28;20324;-72
2022/01/17 01:39:23;;;;;;;49.75;24.98;;;1.00;99.90;;;;;;4971359;28;20061;-73
2022/01/17 01:41:51;;;;;;;37.53;20.85;;;0.90;99.90;;;;;;4965394;28;20160;-72
2022/01/17 01:44:21;;;;;;;35.70;20.65;;;0.90;99.90;;;;;;4964391;28;20690;-72
2022/01/17 01:46:50;;;;;;;39.92;21.25;;;1.00;99.90;;;;;;4965897;28;20050;-72
2022/01/17 01:49:18;;;;;;;43.70;23.05;;;1.00;99.90;;;;;;4964617;28;20081;-73
2022/01/17 01:51:46;;;;;;;37.67;19.58;;;1.00;99.90;;;;;;4967321;28;20142;-73
2022/01/17 01:54:14;;;;;;;47.67;22.42;;;1.00;99.90;;;;;;4970445;28;20453;-73
2022/01/17 01:56:45;;;;;;;38.28;20.17;;;1.00;99.90;;;;;;4977087;28;20093;-73
2022/01/17 01:59:14;;;;;;;36.92;20.70;;;1.00;99.90;;;;;;4974136;28;20050;-72
2022/01/17 02:01:41;;;;;;;28.42;18.02;;;1.00;99.90;;;;;;4977823;28;20093;-73
2022/01/17 02:04:08;;;;;;;28.85;18.55;;;1.00;99.90;;;;;;4972097;28;20050;-73
2022/01/17 02:06:35;;;;;;;36.75;19.67;;;1.00;99.90;;;;;;4974062;28;20066;-73
2022/01/17 02:09:04;;;;;;;45.67;21.92;;;1.00;99.90;;;;;;4975822;28;20050;-73
2022/01/17 02:11:33;;;;;;;36.00;19.80;;;1.00;99.90;;;;;;4971546;28;20039;-73
2022/01/17 02:14:00;;;;;;;37.00;19.05;;;1.10;99.90;;;;;;4977303;28;20088;-73
2022/01/17 02:16:27;;;;;;;33.53;18.55;;;1.10;99.90;;;;;;4977235;28;20054;-72
2022/01/17 02:18:54;;;;;;;42.72;21.83;;;1.00;99.90;;;;;;4974750;28;20580;-73
2022/01/17 02:21:45;;;;;;;19.52;14.70;;;1.00;99.90;;;;;;4975992;28;20057;-72
2022/01/17 02:24:18;;;;;;;34.28;20.02;;;1.00;99.90;;;;;;4979754;28;20489;-73
2022/01/17 02:26:47;;;;;;;42.58;20.60;;;1.10;99.90;;;;;;4971051;28;20038;-73
2022/01/17 02:29:14;;;;;;;29.75;18.85;;;1.10;99.90;;;;;;4974098;28;20462;-72
2022/01/17 02:31:43;;;;;;;26.98;17.65;;;1.00;99.90;;;;;;4974598;28;20313;-73
2022/01/17 02:34:11;;;;;;;22.67;15.85;;;1.20;99.90;;;;;;4972793;28;21308;-72
2022/01/17 02:36:39;;;;;;;33.80;20.85;;;1.20;99.90;;;;;;4970702;28;20067;-72
2022/01/17 02:39:06;;;;;;;31.98;19.70;;;1.20;99.90;;;;;;4950408;28;20057;-72
2022/01/17 02:41:35;;;;;;;30.42;19.48;;;1.10;99.90;;;;;;4952073;28;20346;-72
2022/01/17 02:44:02;;;;;;;21.63;14.73;;;1.10;99.90;;;;;;4955763;28;20310;-72
2022/01/17 02:46:29;;;;;;;22.92;16.33;;;1.20;99.90;;;;;;4950388;28;20085;-72
2022/01/17 02:48:58;;;;;;;33.25;20.00;;;1.30;99.90;;;;;;4967263;28;20484;-73
2022/01/17 02:51:28;;;;;;;23.98;16.30;;;1.20;99.90;;;;;;4970728;28;20046;-73
2022/01/17 02:53:56;;;;;;;22.60;16.95;;;1.20;99.90;;;;;;4972880;28;20114;-72
2022/01/17 02:56:24;;;;;;;23.35;16.65;;;1.20;99.90;;;;;;4973551;28;20061;-73
2022/01/17 02:58:52;;;;;;;29.25;17.90;;;1.20;99.90;;;;;;4968546;28;20050;-73
2022/01/17 03:01:25;;;;;;;31.58;19.48;;;1.20;99.90;;;;;;4970573;28;20549;-73
2022/01/17 03:03:53;;;;;;;35.67;21.85;;;1.10;99.90;;;;;;4959861;28;20662;-73
2022/01/17 03:06:20;;;;;;;33.72;20.13;;;1.10;99.90;;;;;;4971989;28;20113;-72
2022/01/17 03:08:48;;;;;;;37.55;21.35;;;1.10;99.90;;;;;;4971943;28;20046;-72
2022/01/17 03:11:18;;;;;;;31.92;19.67;;;1.00;99.90;;;;;;4972664;28;20043;-73
2022/01/17 03:13:48;;;;;;;36.22;20.13;;;1.10;99.90;;;;;;4966702;28;20081;-73
2022/01/17 03:16:17;;;;;;;33.33;20.02;;;1.00;99.90;;;;;;4973303;28;20053;-72
2022/01/17 03:18:50;;;;;;;33.53;20.17;;;1.00;99.90;;;;;;4974734;28;20648;-72
2022/01/17 03:21:20;;;;;;;23.33;15.60;;;1.10;99.90;;;;;;4975548;28;20049;-72
2022/01/17 03:23:49;;;;;;;37.17;20.23;;;1.10;99.90;;;;;;4973271;28;20741;-72
2022/01/17 03:26:17;;;;;;;34.10;19.52;;;1.10;99.90;;;;;;4970862;28;20070;-72
2022/01/17 03:28:44;;;;;;;37.17;19.70;;;1.10;99.90;;;;;;4957408;28;20457;-72
2022/01/17 03:31:11;;;;;;;35.42;20.52;;;1.20;99.90;;;;;;4973505;28;20593;-72
2022/01/17 03:33:39;;;;;;;37.35;19.88;;;1.10;99.90;;;;;;4976767;28;20058;-72
2022/01/17 03:36:07;;;;;;;31.67;19.23;;;1.10;99.90;;;;;;4967100;28;20529;-72
2022/01/17 03:38:35;;;;;;;38.20;20.42;;;1.10;99.90;;;;;;4978356;28;20054;-72
2022/01/17 03:41:05;;;;;;;24.77;17.17;;;1.10;99.90;;;;;;4977797;28;20065;-72
2022/01/17 03:43:32;;;;;;;38.58;20.52;;;1.20;99.90;;;;;;4977137;28;20041;-72
2022/01/17 03:45:59;;;;;;;34.67;19.50;;;1.10;99.90;;;;;;4975713;28;20057;-72
2022/01/17 03:48:29;;;;;;;35.25;19.80;;;1.10;99.90;;;;;;4975327;28;20046;-72
2022/01/17 03:50:56;;;;;;;46.45;21.48;;;1.10;99.90;;;;;;4976568;28;20125;-72
2022/01/17 03:53:24;;;;;;;35.22;20.15;;;;;;;;;;4979771;28;20070;-72
2022/01/17 03:55:51;;;;;;;24.38;15.98;;;;;;;;;;4990494;28;20047;-72
2022/01/17 03:58:19;;;;;;;36.67;21.60;;;1.30;99.90;;;;;;4974770;28;20215;-72
2022/01/17 04:00:47;;;;;;;38.72;21.45;;;1.20;99.90;;;;;;4977328;28;20069;-73
2022/01/17 04:03:16;;;;;;;32.25;19.73;;;1.20;99.90;;;;;;4973749;28;20054;-73
2022/01/17 04:05:43;;;;;;;37.72;19.40;;;1.20;99.90;;;;;;4976824;28;20039;-73
2022/01/17 04:08:10;;;;;;;41.03;19.73;;;1.20;99.90;;;;;;4984716;28;20081;-73
2022/01/17 04:10:37;;;;;;;13.95;10.27;;;1.30;99.90;;;;;;4988845;28;20474;-72
2022/01/17 04:13:04;;;;;;;16.45;13.48;;;1.60;99.90;;;;;;4989843;28;20186;-72
2022/01/17 04:15:33;;;;;;;17.25;13.25;;;1.60;99.90;;;;;;4988825;28;20137;-72
2022/01/17 04:18:05;;;;;;;17.08;13.57;;;1.50;99.90;;;;;;4987948;28;20133;-73
2022/01/17 04:20:33;;;;;;;18.85;13.85;;;1.60;99.90;;;;;;4988888;28;20043;-72
2022/01/17 04:23:06;;;;;;;19.95;13.73;;;1.50;99.90;;;;;;4988141;28;20046;-72
2022/01/17 04:25:36;;;;;;;19.83;14.80;;;1.40;99.90;;;;;;4988623;28;20129;-72
2022/01/17 04:28:05;;;;;;;17.50;13.60;;;1.30;99.90;;;;;;4988975;28;20042;-72
2022/01/17 04:30:34;;;;;;;19.13;12.15;;;1.40;99.90;;;;;;4992903;28;20061;-73
2022/01/17 04:33:03;;;;;;;18.92;13.35;;;1.40;99.90;;;;;;4998499;28;20368;-72
2022/01/17 04:35:30;;;;;;;16.67;11.82;;;;;;;;;;4983468;28;20034;-73
2022/01/17 04:37:59;;;;;;;22.17;13.95;;;;;;;;;;4982532;28;20050;-72
2022/01/17 04:40:33;;;;;;;20.67;13.88;;;;;;;;;;4985640;28;20081;-72
2022/01/17 04:43:04;;;;;;;14.50;11.50;;;;;;;;;;4969487;28;20748;-72
2022/01/17 04:45:33;;;;;;;20.60;13.18;;;1.60;99.90;;;;;;4986036;28;20410;-73
2022/01/17 04:48:01;;;;;;;17.55;11.98;;;;;;;;;;4989058;28;20494;-72
2022/01/17 04:50:29;;;;;;;15.50;11.75;;;;;;;;;;4980923;28;20134;-72
2022/01/17 04:52:59;;;;;;;18.20;13.48;;;;;;;;;;4970400;28;20042;-72
2022/01/17 04:55:28;;;;;;;17.58;13.32;;;;;;;;;;4987000;28;20129;-72
2022/01/17 04:57:56;;;;;;;23.85;14.68;;;;;;;;;;4985159;28;20050;-72
2022/01/17 05:00:24;;;;;;;16.50;11.00;;;;;;;;;;4982758;28;20148;-73
2022/01/17 05:02:51;;;;;;;16.73;12.18;;;;;;;;;;4986674;28;20133;-72
2022/01/17 05:05:21;;;;;;;12.55;9.73;;;;;;;;;;4985292;28;20101;-72
2022/01/17 05:07:48;;;;;;;16.85;13.02;;;;;;;;;;4970039;28;20078;-72
2022/01/17 05:10:17;;;;;;;16.95;11.25;;;;;;;;;;4985679;28;20514;-72
2022/01/17 05:12:45;;;;;;;15.10;11.20;;;;;;;;;;4986607;28;20512;-72
2022/01/17 05:15:36;;;;;;;19.88;13.57;;;;;;;;;;4986649;28;20042;-72
2022/01/17 05:20:39;;;;;;;18.17;14.10;;;;;;;;;;4986289;28;20065;-72
2022/01/17 05:23:07;;;;;;;19.00;14.25;;;;;;;;;;4986027;28;20104;-72
2022/01/17 05:25:35;;;;;;;12.98;9.90;;;;;;;;;;4985133;28;21716;-72
2022/01/17 05:28:03;;;;;;;18.25;13.98;;;;;;;;;;4976841;28;20035;-73
2022/01/17 05:30:31;;;;;;;21.33;15.73;;;;;;;;;;4985294;28;20046;-73
2022/01/17 05:32:58;;;;;;;18.23;12.63;;;;;;;;;;4990712;28;20073;-73
2022/01/17 05:35:25;;;;;;;20.10;14.95;;;;;;;;;;4991378;28;20684;-73
2022/01/17 05:37:53;;;;;;;18.73;13.80;;;;;;;;;;4984697;28;20396;-73
2022/01/17 05:40:21;;;;;;;16.92;12.93;;;;;;;;;;4985840;28;20038;-73
2022/01/17 05:42:48;;;;;;;15.68;11.32;;;;;;;;;;4986467;28;20046;-72
2022/01/17 05:45:16;;;;;;;17.95;13.68;;;;;;;;;;4990599;28;20042;-73
2022/01/17 05:47:44;;;;;;;17.75;14.55;;;;;;;;;;4990588;28;20129;-73
2022/01/17 05:50:11;;;;;;;15.00;11.55;;;;;;;;;;4987462;28;20069;-72
2022/01/17 05:52:39;;;;;;;18.00;12.93;;;;;;;;;;4988665;28;20101;-73
2022/01/17 05:55:08;;;;;;;18.30;14.20;;;;;;;;;;4989542;28;20046;-73
2022/01/17 05:57:36;;;;;;;19.45;14.85;;;;;;;;;;4983260;28;20046;-73
2022/01/17 06:00:08;;;;;;;21.13;13.75;;;;;;;;;;4988584;28;20145;-72
2022/01/17 06:02:35;;;;;;;21.60;14.23;;;;;;;;;;4984579;28;20038;-72
2022/01/17 06:05:03;;;;;;;17.10;12.65;;;;;;;;;;4982514;28;20449;-72
2022/01/17 06:07:32;;;;;;;21.52;14.40;;;;;;;;;;4971471;28;20073;-73
2022/01/17 06:10:03;;;;;;;17.85;12.52;;;;;;;;;;4950131;28;20050;-71
2022/01/17 06:12:30;;;;;;;20.08;14.20;;;;;;;;;;4959244;28;20043;-71
2022/01/17 06:14:58;;;;;;;20.42;13.75;;;;;;;;;;4945830;29;20051;-71
2022/01/17 06:17:25;;;;;;;18.30;11.57;;;;;;;;;;4948670;28;20050;-71
2022/01/17 06:19:53;;;;;;;20.48;14.63;;;;;;;;;;4950275;28;20567;-71
2022/01/17 06:22:20;;;;;;;20.85;13.85;;;;;;;;;;4956425;28;20177;-71
2022/01/17 06:24:48;;;;;;;20.98;14.10;;;;;;;;;;4967356;28;20074;-71
2022/01/17 06:27:16;;;;;;;23.33;18.45;;;;;;;;;;4964402;28;20064;-71
2022/01/17 06:29:44;;;;;;;23.95;15.32;;;;;;;;;;4963679;28;20117;-72
2022/01/17 06:32:11;;;;;;;26.08;16.40;;;;;;;;;;4970671;28;20494;-72
2022/01/17 06:34:55;;;;;;;25.55;15.75;;;;;;;;;;4969882;28;20061;-72
2022/01/17 06:37:22;;;;;;;24.92;15.55;;;;;;;;;;4965629;28;20506;-72
2022/01/17 06:43:08;;;;;;;23.60;16.15;;;;;;;;;;4871593;29;20065;-72
2022/01/17 06:45:36;;;;;;;29.08;18.58;;;;;;;;;;4864579;29;20052;-72
2022/01/17 06:48:05;;;;;;;28.90;18.23;;;;;;;;;;4888800;29;20045;-72
2022/01/17 06:50:33;;;;;;;37.53;23.30;;;;;;;;;;4871176;29;20052;-73
2022/01/17 06:53:01;;;;;;;32.53;21.08;;;;;;;;;;4891942;29;20095;-72
2022/01/17 06:55:28;;;;;;;25.17;17.27;;;;;;;;;;4889440;29;20049;-72
2022/01/17 06:57:55;;;;;;;35.75;20.20;;;;;;;;;;4891807;29;20151;-72
2022/01/17 07:00:23;;;;;;;28.70;18.63;;;;;;;;;;4891729;29;20064;-73
2022/01/17 07:02:53;;;;;;;26.70;15.65;;;;;;;;;;4891391;29;20140;-72
2022/01/17 07:05:20;;;;;;;24.70;16.42;;;;;;;;;;4891851;29;20104;-72
2022/01/17 07:07:48;;;;;;;26.45;16.73;;;;;;;;;;4892271;29;20123;-73
2022/01/17 07:10:28;;;;;;;25.08;16.08;;;;;;;;;;4890728;29;20375;-73
2022/01/17 07:12:56;;;;;;;26.95;16.10;;;;;;;;;;4887616;29;20040;-72
2022/01/17 07:15:23;;;;;;;35.13;18.92;;;;;;;;;;4894772;29;20425;-72
2022/01/17 07:17:51;;;;;;;27.50;17.73;;;;;;;;;;4893747;29;20140;-72
2022/01/17 07:20:18;;;;;;;29.20;18.23;;;;;;;;;;4959373;28;20530;-72
2022/01/17 07:22:46;;;;;;;29.73;18.27;;;;;;;;;;4983105;28;20617;-72
2022/01/17 07:25:13;;;;;;;31.83;18.52;;;;;;;;;;4991425;28;20043;-72
2022/01/17 07:27:42;;;;;;;33.00;19.17;;;;;;;;;;4991710;28;20042;-72
2022/01/17 07:30:10;;;;;;;32.17;17.92;;;;;;;;;;4989180;28;20038;-72
2022/01/17 07:32:38;;;;;;;28.13;18.00;;;;;;;;;;4991452;28;20054;-72
2022/01/17 07:35:06;;;;;;;35.45;19.70;;;;;;;;;;4991736;28;20065;-72
2022/01/17 07:37:33;;;;;;;31.08;18.40;;;;;;;;;;4978910;28;20053;-73
2022/01/17 07:40:01;;;;;;;26.42;17.67;;;;;;;;;;4972197;28;20129;-72
2022/01/17 07:42:28;;;;;;;24.80;15.55;;;;;;;;;;4989422;28;20518;-72
2022/01/17 07:44:58;;;;;;;22.63;16.02;;;;;;;;;;4981590;28;20122;-73
2022/01/17 07:47:42;;;;;;;16.88;11.48;;;;;;;;;;4989913;28;20092;-71
2022/01/17 07:50:15;;;;;;;22.58;15.45;;;;;;;;;;4986362;28;20050;-72
2022/01/17 07:52:43;;;;;;;16.65;12.38;;;;;;;;;;4980515;28;20109;-72
2022/01/17 07:55:10;;;;;;;16.52;12.82;;;;;;;;;;4976228;28;20038;-72
2022/01/17 07:57:38;;;;;;;23.33;14.68;;;;;;;;;;4988609;28;20514;-72
2022/01/17 08:00:07;;;;;;;17.95;11.75;;;;;;;;;;4980321;28;20085;-72
2022/01/17 08:02:34;;;;;;;20.00;13.43;;;;;;;;;;4974489;28;20133;-72
2022/01/17 08:05:03;;;;;;;18.00;13.68;;;;;;;;;;4970935;28;20125;-72
2022/01/17 08:07:30;;;;;;;13.27;9.40;;;;;;;;;;4988922;28;20050;-72
2022/01/17 08:09:58;;;;;;;17.60;13.02;;;;;;;;;;4988275;28;20529;-72
2022/01/17 08:12:25;;;;;;;18.10;13.98;;;;;;;;;;4968160;28;20055;-72
2022/01/17 08:14:57;;;;;;;21.30;14.18;;;;;;;;;;4968974;28;20053;-72
2022/01/17 08:17:25;;;;;;;21.05;16.00;;;;;;;;;;4968822;28;20054;-72
2022/01/17 08:19:53;;;;;;;18.33;13.57;;;;;;;;;;4967806;28;20051;-72
2022/01/17 08:22:20;;;;;;;16.75;13.07;;;;;;;;;;4968020;28;20142;-72
2022/01/17 08:24:47;;;;;;;19.08;13.38;;;;;;;;;;4968956;28;20502;-72
2022/01/17 08:27:15;;;;;;;16.55;12.63;;;;;;;;;;4967545;28;20146;-72
2022/01/17 08:29:43;;;;;;;10.32;8.55;;;;;;;;;;4967722;28;20047;-71
2022/01/17 08:32:32;;;;;;;11.32;8.00;;;;;;;;;;4968263;28;20046;-70
2022/01/17 08:35:00;;;;;;;19.52;13.23;;;;;;;;;;4968782;28;20046;-71
2022/01/17 08:37:30;;;;;;;16.20;12.35;;;;;;;;;;4967431;28;20115;-72
2022/01/17 08:40:01;;;;;;;16.67;12.82;;;;;;;;;;4967712;28;20455;-71
2022/01/17 08:42:33;;;;;;;16.08;10.52;;;;;;;;;;4969690;28;20065;-71
2022/01/17 08:45:01;;;;;;;15.88;11.63;;;;;;;;;;4984923;28;20129;-71
2022/01/17 08:47:29;;;;;;;11.95;9.45;;;;;;;;;;4989028;28;20446;-71
2022/01/17 08:49:56;;;;;;;14.40;11.63;;;;;;;;;;4988797;28;20116;-72
2022/01/17 08:52:24;;;;;;;11.30;9.40;;;;;;;;;;4989463;28;20485;-71
2022/01/17 08:54:51;;;;;;;16.58;11.48;;;;;;;;;;4987880;28;20101;-72
2022/01/17 08:57:19;;;;;;;15.65;11.20;;;;;;;;;;4988681;28;20073;-71
2022/01/17 08:59:47;;;;;;;12.05;9.85;;;;;;;;;;4988712;28;20066;-72
2022/01/17 09:02:14;;;;;;;14.98;12.02;;;;;;;;;;4989254;28;20203;-72
2022/01/17 09:04:42;;;;;;;21.55;14.02;;;;;;;;;;4988685;28;20049;-72
2022/01/17 09:07:13;;;;;;;14.32;10.93;;;;;;;;;;4987970;28;20096;-71
2022/01/17 09:09:41;;;;;;;10.85;8.73;;;;;;;;;;4988733;28;20266;-71
2022/01/17 09:12:09;;;;;;;13.57;11.63;;;;;;;;;;4988788;28;20035;-71
2022/01/17 09:14:37;;;;;;;14.77;11.20;;;;;;;;;;4989537;28;20039;-71
2022/01/17 09:17:09;;;;;;;14.07;10.88;;;;;;;;;;4988490;28;20060;-71
2022/01/17 09:19:37;;;;;;;;;;;3.20;99.90;;;;;;4990157;28;20498;-71
2022/01/17 09:22:07;;;;;;;15.43;11.32;;;3.00;99.90;;;;;;4990113;28;20285;-72
2022/01/17 09:24:36;;;;;;;12.38;9.55;;;3.00;99.90;;;;;;4988459;28;20588;-72
2022/01/17 09:27:05;;;;;;;15.13;8.93;;;3.00;99.90;;;;;;4989562;28;20050;-71
2022/01/17 09:29:32;;;;;;;14.15;10.70;;;3.00;99.90;;;;;;4989800;28;20049;-72
2022/01/17 09:32:00;;;;;;;12.68;9.43;;;3.20;99.90;;;;;;4989503;28;20104;-71
2022/01/17 09:34:27;;;;;;;13.80;10.60;;;3.10;99.90;;;;;;4988001;28;20066;-71
2022/01/17 09:36:54;;;;;;;13.52;10.55;;;3.10;99.90;;;;;;4988568;28;20498;-71
2022/01/17 09:39:21;;;;;;;12.23;8.73;;;3.00;99.90;;;;;;4988474;28;20528;-70
2022/01/17 09:41:48;;;;;;;14.80;10.98;;;3.00;99.90;;;;;;4989669;28;20298;-71
2022/01/17 09:44:15;;;;;;;13.52;10.95;;;2.90;99.90;;;;;;4990128;28;20046;-71
2022/01/17 09:46:46;;;;;;;12.43;9.00;;;3.00;99.90;;;;;;4989313;28;20069;-71
2022/01/17 09:49:21;;;;;;;12.52;10.00;;;2.90;99.90;;;;;;4972258;28;20093;-71
2022/01/17 09:54:31;;;;;;;11.98;9.70;;;3.00;99.90;;;;;;4988950;28;20069;-71
2022/01/17 09:57:01;;;;;;;12.95;9.38;;;2.90;99.90;;;;;;4987590;28;20046;-71
2022/01/17 09:59:30;;;;;;;12.90;9.77;;;3.00;99.90;;;;;;4987781;28;20043;-71
2022/01/17 10:01:57;;;;;;;10.48;7.82;;;3.10;99.90;;;;;;4988178;28;20449;-71
2022/01/17 10:04:24;;;;;;;15.32;10.80;;;3.20;99.90;;;;;;4989368;28;20128;-71
2022/01/17 10:06:55;;;;;;;8.35;7.07;;;3.20;99.90;;;;;;4988799;28;20133;-70
2022/01/17 10:09:24;;;;;;;10.20;8.50;;;3.30;99.90;;;;;;4989006;28;20129;-71
2022/01/17 10:12:06;;;;;;;15.50;9.80;;;3.20;99.90;;;;;;4986350;28;20066;-71
2022/01/17 10:14:40;;;;;;;12.02;10.15;;;3.20;99.90;;;;;;4978035;28;20046;-71
2022/01/17 10:17:17;;;;;;;9.63;6.60;;;3.20;99.90;;;;;;4986522;28;20034;-72
2022/01/17 10:20:02;;;;;;;12.00;8.70;;;3.30;99.90;;;;;;4987796;28;20062;-71
2022/01/17 10:22:41;;;;;;;11.13;8.70;;;3.30;99.90;;;;;;4991374;28;20574;-72
2022/01/17 10:31:05;;;;;;;12.20;8.18;;;3.20;99.90;;;;;;4927325;29;20044;-72
2022/01/17 10:36:21;;;;;;;13.00;10.02;;;3.40;99.90;;;;;;4930614;29;20396;-72
2022/01/17 10:39:05;;;;;;;11.68;8.90;;;3.30;99.90;;;;;;4931382;29;20610;-71
2022/01/17 10:41:32;;;;;;;14.10;9.52;;;3.40;99.90;;;;;;4928428;29;20044;-71
2022/01/17 10:43:59;;;;;;;12.50;9.35;;;3.50;99.90;;;;;;4931723;29;20051;-71
2022/01/17 10:46:26;;;;;;;10.30;9.20;;;3.40;99.90;;;;;;4928364;29;20130;-71
2022/01/17 10:48:56;;;;;;;14.02;10.57;;;3.40;99.90;;;;;;4931784;29;20580;-72
2022/01/17 10:51:37;;;;;;;14.05;10.55;;;3.30;99.90;;;;;;4930639;29;20059;-71
2022/01/17 10:54:17;;;;;;;11.65;7.60;;;3.30;99.90;;;;;;4922077;29;20071;-71
2022/01/17 10:56:54;;;;;;;13.80;10.23;;;3.50;99.90;;;;;;4930657;29;20044;-72
2022/01/17 10:59:31;;;;;;;12.55;9.75;;;3.40;99.90;;;;;;4931866;29;20123;-72
2022/01/17 11:01:59;;;;;;;12.52;9.00;;;3.40;99.90;;;;;;4910515;29;20150;-71
2022/01/17 11:04:35;;;;;;;10.25;8.95;;;3.40;99.90;;;;;;4940424;28;20489;-71
2022/01/17 11:07:08;;;;;;;10.95;9.30;;;3.50;99.90;;;;;;5006960;28;20049;-72
2022/01/17 11:09:48;;;;;;;12.13;9.80;;;3.50;99.90;;;;;;4990111;28;20712;-71
2022/01/17 11:12:17;;;;;;;14.55;10.05;;;3.50;99.90;;;;;;4989110;28;20470;-71
2022/01/17 11:14:46;;;;;;;9.13;7.00;;;3.40;99.90;;;;;;4989721;28;20047;-71
2022/01/17 11:17:34;;;;;;;11.20;8.85;;;3.30;99.90;;;;;;4989688;28;20034;-72
2022/01/17 11:22:31;;;;;;;13.88;10.85;;;3.60;99.90;;;;;;4990485;28;20105;-72
2022/01/17 11:25:00;;;;;;;11.85;8.10;;;3.60;99.90;;;;;;4990375;28;20133;-71
2022/01/17 11:27:27;;;;;;;12.02;9.90;;;3.60;99.90;;;;;;4989953;28;20050;-71
2022/01/17 11:29:55;;;;;;;10.85;7.88;;;3.60;99.90;;;;;;4988273;28;20038;-71
2022/01/17 11:32:22;;;;;;;10.43;8.07;;;3.50;99.90;;;;;;4986255;28;20113;-71
2022/01/17 11:34:52;;;;;;;10.40;8.30;;;3.30;99.90;;;;;;4990641;28;20042;-72
2022/01/17 11:37:20;;;;;;;9.77;8.43;;;3.50;99.90;;;;;;4987152;28;20223;-71
2022/01/17 11:39:50;;;;;;;5.50;4.35;;;3.40;99.90;;;;;;4986711;28;20124;-71
2022/01/17 11:42:29;;;;;;;7.78;6.75;;;3.50;99.90;;;;;;4988418;28;20137;-71
2022/01/17 11:44:56;;;;;;;8.60;7.47;;;3.60;99.90;;;;;;4989458;28;20125;-71
2022/01/17 11:48:00;;;;;;;7.25;5.93;;;3.50;99.90;;;;;;4990213;28;20105;-71
2022/01/17 11:50:43;;;;;;;11.23;8.98;;;3.50;99.90;;;;;;4988366;28;20048;-73
2022/01/17 11:53:09;;;;;;;9.82;8.30;;;3.50;99.90;;;;;;4967495;28;20101;-72
2022/01/17 11:55:42;;;;;;;9.23;7.20;;;3.50;99.90;;;;;;4961362;28;20035;-72
2022/01/17 11:58:30;;;;;;;8.50;7.30;;;3.50;99.90;;;;;;4966728;28;20182;-74
2022/01/17 12:01:00;;;;;;;10.32;8.27;;;3.50;99.90;;;;;;4964405;28;20420;-71
2022/01/17 12:03:28;;;;;;;7.07;6.20;;;3.60;99.90;;;;;;4946082;28;20563;-72
2022/01/17 12:05:59;;;;;;;8.55;6.68;;;3.60;99.90;;;;;;4946169;28;20059;-72
2022/01/17 12:08:27;;;;;;;10.13;8.77;;;3.70;99.90;;;;;;4959776;28;20501;-72
2022/01/17 12:10:58;;;;;;;10.50;7.32;;;3.60;99.90;;;;;;4962716;28;20459;-72
2022/01/17 12:13:43;;;;;;;9.30;7.50;;;3.70;99.90;;;;;;4963242;28;20428;-71
2022/01/17 12:16:29;;;;;;;7.78;6.70;;;3.80;99.90;;;;;;4962846;28;20125;-71
2022/01/17 12:19:02;;;;;;;10.25;7.40;;;3.80;99.90;;;;;;4962156;28;20129;-71
2022/01/17 12:21:32;;;;;;;8.47;7.63;;;3.90;99.90;;;;;;4963152;28;20054;-72
2022/01/17 12:24:15;;;;;;;9.50;8.25;;;4.00;99.90;;;;;;4967794;28;20639;-72
2022/01/17 12:26:43;;;;;;;8.23;6.50;;;4.00;99.90;;;;;;4986657;28;20116;-71
2022/01/17 12:29:10;;;;;;;7.72;6.78;;;3.90;99.90;;;;;;4983469;28;20039;-71
2022/01/17 12:31:42;;;;;;;10.00;7.15;;;3.80;99.90;;;;;;4978596;28;20326;-72
2022/01/17 12:34:26;;;;;;;4.90;4.45;;;3.80;99.90;;;;;;4987530;28;20576;-71
2022/01/17 12:36:58;;;;;;;8.75;5.53;;;3.90;99.90;;;;;;4987098;28;20493;-71
2022/01/17 12:39:28;;;;;;;6.57;5.35;;;4.00;99.90;;;;;;4993740;28;20042;-70
2022/01/17 12:42:00;;;;;;;10.70;5.00;;;4.00;99.90;;;;;;4989881;28;20054;-70
2022/01/17 12:44:30;;;;;;;8.13;5.82;;;4.00;99.90;;;;;;4998625;28;20486;-71
2022/01/17 12:47:00;;;;;;;6.88;5.10;;;3.90;99.90;;;;;;4980276;28;20073;-71
2022/01/17 12:49:28;;;;;;;7.25;6.03;;;4.00;99.90;;;;;;4977099;28;20046;-71
2022/01/17 12:51:57;;;;;;;6.45;4.43;;;4.00;99.90;;;;;;4983381;28;20149;-71
2022/01/17 12:54:28;;;;;;;7.85;5.38;;;4.00;99.90;;;;;;4980942;28;20093;-70
2022/01/17 12:56:58;;;;;;;8.37;6.10;;;3.90;99.90;;;;;;4982674;28;20451;-71
2022/01/17 12:59:25;;;;;;;6.63;4.90;;;4.10;99.90;;;;;;4984335;28;20081;-71
2022/01/17 13:01:59;;;;;;;6.85;4.97;;;4.00;99.90;;;;;;4983380;28;20034;-71
2022/01/17 13:04:29;;;;;;;6.32;5.18;;;4.10;99.90;;;;;;4984415;28;20038;-71
2022/01/17 13:06:56;;;;;;;6.22;4.47;;;3.90;99.90;;;;;;4985997;28;20069;-70
2022/01/17 13:09:24;;;;;;;7.28;5.60;;;4.00;99.90;;;;;;4988060;28;20513;-71
2022/01/17 13:11:55;;;;;;;6.30;5.13;;;3.90;99.90;;;;;;4985570;28;20043;-71
2022/01/17 13:14:23;;;;;;;7.43;4.85;;;4.00;99.90;;;;;;4988543;28;20043;-71
2022/01/17 13:16:51;;;;;;;6.43;5.05;;;4.00;99.90;;;;;;4988152;28;20035;-71
2022/01/17 13:19:20;;;;;;;6.72;5.65;;;3.90;99.90;;;;;;4987243;28;20061;-71
2022/01/17 13:21:49;;;;;;;6.60;5.35;;;3.90;99.90;;;;;;4987076;28;20121;-71
2022/01/17 13:24:33;;;;;;;5.40;4.80;;;3.90;99.90;;;;;;4981418;28;20133;-71
2022/01/17 13:27:11;;;;;;;4.97;4.47;;;4.10;99.90;;;;;;4983475;28;21376;-71
2022/01/17 13:29:43;;;;;;;8.05;5.50;;;4.10;99.90;;;;;;4979669;28;20101;-71
2022/01/17 13:32:12;;;;;;;9.02;5.53;;;4.00;99.90;;;;;;4983415;28;20498;-71
2022/01/17 13:34:40;;;;;;;5.15;4.57;;;4.10;99.90;;;;;;4983289;28;20049;-71
2022/01/17 13:37:11;;;;;;;6.18;4.38;;;4.20;99.90;;;;;;4982072;28;20569;-71
2022/01/17 13:39:53;;;;;;;7.35;5.65;;;4.30;99.90;;;;;;4983705;28;20046;-71
2022/01/17 13:42:54;;;;;;;8.23;5.20;;;4.10;99.90;;;;;;4985896;28;20038;-72
2022/01/17 13:45:33;;;;;;;6.80;5.23;;;4.00;99.90;;;;;;4985736;28;20566;-72
2022/01/17 13:48:04;;;;;;;6.47;5.30;;;4.00;99.90;;;;;;4984317;28;20042;-71
2022/01/17 13:50:36;;;;;;;5.30;4.72;;;4.10;99.90;;;;;;4985861;28;20053;-71
2022/01/17 13:53:04;;;;;;;6.15;5.28;;;4.10;99.90;;;;;;4989841;28;20069;-71
2022/01/17 13:55:40;;;;;;;5.88;4.40;;;3.90;99.90;;;;;;4982570;28;20035;-71
2022/01/17 13:58:14;;;;;;;5.07;4.18;;;3.90;99.90;;;;;;4985992;28;20064;-71
2022/01/17 14:00:47;;;;;;;7.15;4.45;;;4.00;99.90;;;;;;4986641;28;20093;-71
2022/01/17 14:03:19;;;;;;;5.97;3.97;;;4.00;99.90;;;;;;4990073;28;20042;-71